createdAt,value
2019-03-10T00:02:16.665Z,4.10
2019-03-10T00:04:45.910Z,3.83
2019-03-10T00:07:15.206Z,5.17
2019-03-10T00:09:44.445Z,4.10
2019-03-10T00:12:13.691Z,3.40
2019-03-10T00:14:42.922Z,4.07
2019-03-10T00:17:12.180Z,3.53
2019-03-10T00:19:41.445Z,3.20
2019-03-10T00:22:10.667Z,3.47
2019-03-10T00:24:39.940Z,3.43
2019-03-10T00:27:09.163Z,3.07
2019-03-10T00:29:39.988Z,2.97
2019-03-10T00:32:09.134Z,3.50
2019-03-10T00:34:38.339Z,3.70
2019-03-10T00:37:07.753Z,3.33
2019-03-10T00:40:31.246Z,4.00
2019-03-10T00:43:34.920Z,4.60
2019-03-10T00:46:47.203Z,4.20
2019-03-10T00:49:46.855Z,4.13
2019-03-10T00:52:22.795Z,4.27
2019-03-10T00:54:51.981Z,4.13
2019-03-10T00:57:21.150Z,4.40
2019-03-10T00:59:50.552Z,5.23
2019-03-10T01:02:19.782Z,4.27
2019-03-10T01:04:49.215Z,4.30
2019-03-10T01:07:18.460Z,5.13
2019-03-10T01:09:47.643Z,6.23
2019-03-10T01:12:16.877Z,5.47
2019-03-10T01:14:46.146Z,6.43
2019-03-10T01:17:15.696Z,5.13
2019-03-10T01:19:45.144Z,7.03
2019-03-10T01:22:14.427Z,6.17
2019-03-10T01:24:43.812Z,7.47
2019-03-10T01:27:12.976Z,7.50
2019-03-10T01:29:42.181Z,7.37
2019-03-10T01:33:04.629Z,7.73
2019-03-10T01:35:37.228Z,8.87
2019-03-10T01:38:06.535Z,7.93
2019-03-10T01:40:35.810Z,8.73
2019-03-10T01:43:04.965Z,8.17
2019-03-10T01:45:34.287Z,9.40
2019-03-10T01:48:03.525Z,9.17
2019-03-10T01:50:32.776Z,9.17
2019-03-10T01:53:02.027Z,10.47
2019-03-10T01:55:31.383Z,9.23
2019-03-10T01:58:00.555Z,8.93
2019-03-10T02:00:29.795Z,9.90
2019-03-10T02:02:58.979Z,8.57
2019-03-10T02:05:28.147Z,9.50
2019-03-10T02:07:57.451Z,7.93
2019-03-10T02:10:26.611Z,9.87
2019-03-10T02:12:55.974Z,8.60
2019-03-10T02:15:25.207Z,9.17
2019-03-10T02:17:54.460Z,8.90
2019-03-10T02:20:23.893Z,8.93
2019-03-10T02:22:53.227Z,8.60
2019-03-10T02:25:22.459Z,8.93
2019-03-10T02:27:51.743Z,10.73
2019-03-10T02:30:20.980Z,8.80
2019-03-10T02:32:50.300Z,8.70
2019-03-10T02:35:19.550Z,10.03
2019-03-10T02:37:48.749Z,9.53
2019-03-10T02:40:17.913Z,8.93
2019-03-10T02:42:47.229Z,9.23
2019-03-10T02:45:16.456Z,9.20
2019-03-10T02:47:45.728Z,9.77
2019-03-10T02:50:15.260Z,8.87
2019-03-10T02:52:44.518Z,8.00
2019-03-10T02:55:13.732Z,10.40
2019-03-10T02:57:43.002Z,9.10
2019-03-10T03:00:12.454Z,9.70
2019-03-10T03:02:41.708Z,8.03
2019-03-10T03:05:11.142Z,9.33
2019-03-10T03:07:40.391Z,9.50
2019-03-10T03:10:11.256Z,8.43
2019-03-10T03:12:40.436Z,9.27
2019-03-10T03:15:10.192Z,7.63
2019-03-10T03:17:39.488Z,7.77
2019-03-10T03:20:09.610Z,7.27
2019-03-10T03:22:38.914Z,8.87
2019-03-10T03:25:08.935Z,8.10
2019-03-10T03:27:38.317Z,8.43
2019-03-10T03:30:08.362Z,7.43
2019-03-10T03:32:37.667Z,7.90
2019-03-10T03:35:57.177Z,7.23
2019-03-10T03:38:35.697Z,7.93
2019-03-10T03:41:07.900Z,6.23
2019-03-10T03:43:37.126Z,7.80
2019-03-10T03:46:06.369Z,7.10
2019-03-10T03:48:35.684Z,7.37
2019-03-10T03:51:05.057Z,6.80
2019-03-10T03:53:34.256Z,7.33
2019-03-10T03:56:03.512Z,6.47
2019-03-10T03:58:32.829Z,6.90
2019-03-10T04:01:11.912Z,7.37
2019-03-10T04:03:41.132Z,6.27
2019-03-10T04:06:10.387Z,6.93
2019-03-10T04:08:39.621Z,6.63
2019-03-10T04:11:08.867Z,6.17
2019-03-10T04:13:38.093Z,6.00
2019-03-10T04:16:07.280Z,6.87
2019-03-10T04:18:36.427Z,5.97
2019-03-10T04:21:05.694Z,7.07
2019-03-10T04:23:34.984Z,6.03
2019-03-10T04:26:04.289Z,8.00
2019-03-10T04:28:33.500Z,6.70
2019-03-10T04:31:02.769Z,7.07
2019-03-10T04:33:32.001Z,7.10
2019-03-10T04:36:01.299Z,7.13
2019-03-10T04:38:30.519Z,6.57
2019-03-10T04:40:59.708Z,7.90
2019-03-10T04:43:28.936Z,6.63
2019-03-10T04:45:58.128Z,7.37
2019-03-10T04:48:27.436Z,6.60
2019-03-10T04:50:56.692Z,7.47
2019-03-10T04:53:25.958Z,7.23
2019-03-10T04:56:29.566Z,6.43
2019-03-10T04:58:58.823Z,7.50
2019-03-10T05:01:28.083Z,5.93
2019-03-10T05:03:57.304Z,7.20
2019-03-10T05:06:26.532Z,6.00
2019-03-10T05:08:55.704Z,7.37
2019-03-10T05:11:24.968Z,6.37
2019-03-10T05:13:54.128Z,6.47
2019-03-10T05:16:23.451Z,6.17
2019-03-10T05:18:52.679Z,6.23
2019-03-10T05:21:21.859Z,5.83
2019-03-10T05:23:51.019Z,7.27
2019-03-10T05:26:20.230Z,6.37
2019-03-10T05:28:49.657Z,5.57
2019-03-10T05:31:18.899Z,6.13
2019-03-10T05:33:48.114Z,5.87
2019-03-10T05:36:17.274Z,6.57
2019-03-10T05:38:46.442Z,5.70
2019-03-10T05:41:15.667Z,5.77
2019-03-10T05:43:44.856Z,5.70
2019-03-10T05:46:14.084Z,5.87
2019-03-10T05:48:43.360Z,5.27
2019-03-10T05:51:12.641Z,5.83
2019-03-10T05:53:41.824Z,5.53
2019-03-10T05:56:11.064Z,4.50
2019-03-10T05:58:40.391Z,6.10
2019-03-10T06:01:09.552Z,4.27
2019-03-10T06:03:38.808Z,5.20
2019-03-10T06:06:08.126Z,5.60
2019-03-10T06:08:37.315Z,4.57
2019-03-10T06:11:06.472Z,4.20
2019-03-10T06:13:35.740Z,4.27
2019-03-10T06:16:05.091Z,3.20
2019-03-10T06:18:34.311Z,4.27
2019-03-10T06:21:03.473Z,3.67
2019-03-10T06:23:32.726Z,3.63
2019-03-10T06:26:01.885Z,3.93
2019-03-10T06:28:31.207Z,3.87
2019-03-10T06:31:00.437Z,4.13
2019-03-10T06:33:29.706Z,4.30
2019-03-10T06:35:58.971Z,3.87
2019-03-10T06:38:28.202Z,3.60
2019-03-10T06:40:57.459Z,3.40
2019-03-10T06:43:26.763Z,4.20
2019-03-10T06:45:56.025Z,3.70
2019-03-10T06:48:25.327Z,3.50
2019-03-10T06:50:54.711Z,3.53
2019-03-10T06:53:23.934Z,3.67
2019-03-10T06:55:53.120Z,3.90
2019-03-10T06:58:22.273Z,3.67
2019-03-10T07:00:51.452Z,3.50
2019-03-10T07:03:20.607Z,4.53
2019-03-10T07:05:49.863Z,3.67
2019-03-10T07:08:21.372Z,3.80
2019-03-10T07:10:50.619Z,3.60
2019-03-10T07:13:19.844Z,4.40
2019-03-10T07:15:49.111Z,6.33
2019-03-10T07:18:18.335Z,3.70
2019-03-10T07:20:47.582Z,4.00
2019-03-10T07:23:18.083Z,6.27
2019-03-10T07:25:49.004Z,4.87
2019-03-10T07:28:31.635Z,4.30
2019-03-10T07:31:13.963Z,3.40
2019-03-10T07:33:51.656Z,4.20
2019-03-10T07:36:30.896Z,3.90
2019-03-10T07:39:37.516Z,7.60
2019-03-10T07:42:25.734Z,3.83
2019-03-10T07:45:10.959Z,4.50
2019-03-10T07:47:49.108Z,4.00
2019-03-10T07:50:34.613Z,4.10
2019-03-10T07:53:31.870Z,3.43
2019-03-10T07:56:22.879Z,3.33
2019-03-10T07:59:10.092Z,3.10
2019-03-10T08:01:46.208Z,2.90
2019-03-10T08:04:52.524Z,3.33
2019-03-10T08:07:36.116Z,3.07
2019-03-10T08:10:19.925Z,2.97
2019-03-10T08:13:00.643Z,3.77
2019-03-10T08:15:52.422Z,3.53
2019-03-10T08:18:34.138Z,2.70
2019-03-10T08:21:37.792Z,3.87
2019-03-10T08:24:22.492Z,3.30
2019-03-10T08:27:10.774Z,4.43
2019-03-10T08:29:58.140Z,3.33
2019-03-10T08:32:52.605Z,4.10
2019-03-10T08:35:43.622Z,3.30
2019-03-10T08:38:40.887Z,3.70
2019-03-10T08:41:29.074Z,3.27
2019-03-10T08:44:32.639Z,3.00
2019-03-10T08:47:07.590Z,2.53
2019-03-10T08:49:45.481Z,2.77
2019-03-10T08:52:21.388Z,6.30
2019-03-10T08:55:09.568Z,2.80
2019-03-10T08:57:48.208Z,2.50
2019-03-10T09:00:31.207Z,2.50
2019-03-10T09:03:11.993Z,2.90
2019-03-10T09:06:09.544Z,2.60
2019-03-10T09:09:06.916Z,3.03
2019-03-10T09:12:07.251Z,3.73
2019-03-10T09:14:49.452Z,3.13
2019-03-10T09:17:28.644Z,3.70
2019-03-10T09:20:16.860Z,3.03
2019-03-10T09:23:01.925Z,3.10
2019-03-10T09:25:59.480Z,4.43
2019-03-10T09:28:47.688Z,3.60
2019-03-10T09:31:34.595Z,3.80
2019-03-10T09:34:17.106Z,3.00
2019-03-10T09:37:02.460Z,4.10
2019-03-10T09:39:35.771Z,3.70
2019-03-10T09:42:22.729Z,4.00
2019-03-10T09:45:03.800Z,3.63
2019-03-10T09:47:54.755Z,3.57
2019-03-10T09:50:45.972Z,3.40
2019-03-10T09:53:32.826Z,3.07
2019-03-10T09:56:20.019Z,4.10
2019-03-10T09:59:20.591Z,4.33
2019-03-10T10:02:07.838Z,3.33
2019-03-10T10:05:05.272Z,3.13
2019-03-10T10:07:54.160Z,2.50
2019-03-10T10:10:45.203Z,3.40
2019-03-10T10:13:29.719Z,3.43
2019-03-10T10:16:27.241Z,3.53
2019-03-10T10:19:14.415Z,3.90
2019-03-10T10:22:01.435Z,3.10
2019-03-10T10:24:52.427Z,4.03
2019-03-10T10:27:43.399Z,3.97
2019-03-10T10:30:30.733Z,4.20
2019-03-10T10:33:18.095Z,3.47
2019-03-10T10:36:01.650Z,4.33
2019-03-10T10:38:52.912Z,4.53
2019-03-10T10:41:34.844Z,3.10
2019-03-10T10:44:23.033Z,3.40
2019-03-10T10:47:07.535Z,3.43
2019-03-10T10:49:55.764Z,2.80
2019-03-10T10:52:44.004Z,2.90
2019-03-10T10:55:40.234Z,3.13
2019-03-10T10:58:28.500Z,3.20
2019-03-10T11:01:21.255Z,2.73
2019-03-10T11:04:08.034Z,2.30
2019-03-10T11:07:02.096Z,2.87
2019-03-10T11:09:56.080Z,3.03
2019-03-10T11:12:56.398Z,3.13
2019-03-10T11:15:35.040Z,3.30
2019-03-10T11:18:21.958Z,3.00
2019-03-10T11:21:01.487Z,3.03
2019-03-10T11:23:49.708Z,2.43
2019-03-10T11:26:27.323Z,2.30
2019-03-10T11:29:24.952Z,2.40
2019-03-10T11:32:13.161Z,3.20
2019-03-10T11:34:58.003Z,3.20
2019-03-10T11:37:46.302Z,1.60
2019-03-10T11:40:32.939Z,1.23
2019-03-10T11:43:22.604Z,1.50
2019-03-10T11:46:25.364Z,1.50
2019-03-10T11:49:03.403Z,1.63
2019-03-10T11:52:03.639Z,4.07
2019-03-10T11:54:54.631Z,4.07
2019-03-10T11:57:32.132Z,7.37
2019-03-10T12:00:19.482Z,2.20
2019-03-10T12:03:02.799Z,2.40
2019-03-10T12:05:47.335Z,2.83
2019-03-10T12:08:22.549Z,1.97
2019-03-10T12:10:51.776Z,5.57
2019-03-10T12:13:21.991Z,5.53
2019-03-10T12:15:51.226Z,5.00
2019-03-10T12:18:20.565Z,4.43
2019-03-10T12:20:49.861Z,2.87
2019-03-10T12:23:19.110Z,2.90
2019-03-10T12:25:48.353Z,2.30
2019-03-10T12:28:17.626Z,1.90
2019-03-10T12:30:46.875Z,2.07
2019-03-10T12:33:16.100Z,1.93
2019-03-10T12:35:46.399Z,1.80
2019-03-10T12:38:15.652Z,1.90
2019-03-10T12:40:44.895Z,1.70
2019-03-10T12:43:14.049Z,1.80
2019-03-10T12:45:43.303Z,1.57
2019-03-10T12:48:12.462Z,1.80
2019-03-10T12:50:41.716Z,1.87
2019-03-10T12:53:10.953Z,2.10
2019-03-10T12:55:40.278Z,2.10
2019-03-10T12:58:09.506Z,3.50
2019-03-10T13:00:38.787Z,4.87
2019-03-10T13:03:08.079Z,2.33
2019-03-10T13:05:37.430Z,2.00
2019-03-10T13:08:06.692Z,2.47
2019-03-10T13:10:36.039Z,2.33
2019-03-10T13:13:05.301Z,2.60
2019-03-10T13:15:34.560Z,2.00
2019-03-10T13:18:04.672Z,2.53
2019-03-10T13:20:34.114Z,2.33
2019-03-10T13:23:03.526Z,2.30
2019-03-10T13:25:32.798Z,2.23
2019-03-10T13:28:02.038Z,2.20
2019-03-10T13:30:31.319Z,2.37
2019-03-10T13:33:00.488Z,2.33
2019-03-10T13:35:29.703Z,2.53
2019-03-10T13:37:58.940Z,2.40
2019-03-10T13:40:28.135Z,2.53
2019-03-10T13:42:57.439Z,2.10
2019-03-10T13:45:26.619Z,2.30
2019-03-10T13:47:55.881Z,2.70
2019-03-10T13:50:25.140Z,2.50
2019-03-10T13:52:54.470Z,2.03
2019-03-10T13:55:23.800Z,2.60
2019-03-10T13:57:53.231Z,2.43
2019-03-10T14:00:23.990Z,2.00
2019-03-10T14:02:53.419Z,2.13
2019-03-10T14:05:22.643Z,2.03
2019-03-10T14:07:51.899Z,2.70
2019-03-10T14:10:21.124Z,2.47
2019-03-10T14:12:50.310Z,2.30
2019-03-10T14:15:19.621Z,1.93
2019-03-10T14:17:48.952Z,1.90
2019-03-10T14:20:18.119Z,2.07
2019-03-10T14:22:47.369Z,2.20
2019-03-10T14:25:16.935Z,2.30
2019-03-10T14:27:46.195Z,2.50
2019-03-10T14:30:16.456Z,3.00
2019-03-10T14:32:45.757Z,2.80
2019-03-10T14:35:15.427Z,2.50
2019-03-10T14:37:44.686Z,2.93
2019-03-10T14:40:14.577Z,2.73
2019-03-10T14:42:43.839Z,2.97
2019-03-10T14:45:13.805Z,2.80
2019-03-10T14:47:43.059Z,3.03
2019-03-10T14:50:12.980Z,3.10
2019-03-10T14:52:42.312Z,3.00
2019-03-10T14:55:12.489Z,4.80
2019-03-10T14:57:41.861Z,4.80
2019-03-10T15:00:14.668Z,9.07
2019-03-10T15:02:43.895Z,10.43
2019-03-10T15:05:13.163Z,19.30
2019-03-10T15:07:42.345Z,2.97
2019-03-10T15:10:12.407Z,3.00
2019-03-10T15:12:41.644Z,2.20
2019-03-10T15:15:21.574Z,2.27
2019-03-10T15:17:44.764Z,1.87
2019-03-10T15:20:14.076Z,2.20
2019-03-10T15:22:43.294Z,2.37
2019-03-10T15:25:12.954Z,2.13
2019-03-10T15:27:42.176Z,2.20
2019-03-10T15:30:14.507Z,2.00
2019-03-10T15:32:43.744Z,2.03
2019-03-10T15:35:15.670Z,1.40
2019-03-10T15:37:45.090Z,1.70
2019-03-10T15:40:14.881Z,1.33
2019-03-10T15:42:44.105Z,1.20
2019-03-10T15:45:14.111Z,0.97
2019-03-10T15:47:43.363Z,1.10
2019-03-10T15:50:18.337Z,1.00
2019-03-10T15:52:47.653Z,1.00
2019-03-10T15:55:17.136Z,1.67
2019-03-10T15:57:50.409Z,1.13
2019-03-10T16:00:18.455Z,0.90
2019-03-10T16:02:47.703Z,1.20
2019-03-10T16:05:16.968Z,1.17
2019-03-10T16:07:46.222Z,1.30
2019-03-10T16:10:16.145Z,1.00
2019-03-10T16:12:45.369Z,1.20
2019-03-10T16:15:15.194Z,0.90
2019-03-10T16:17:45.942Z,1.20
2019-03-10T16:20:15.468Z,1.07
2019-03-10T16:22:44.679Z,0.93
2019-03-10T16:25:14.026Z,1.27
2019-03-10T16:27:43.195Z,1.30
2019-03-10T16:30:14.940Z,1.30
2019-03-10T16:32:44.194Z,1.30
2019-03-10T16:35:13.916Z,1.30
2019-03-10T16:37:43.217Z,1.50
2019-03-10T16:40:13.899Z,1.03
2019-03-10T16:42:43.103Z,1.80
2019-03-10T16:45:15.064Z,1.37
2019-03-10T16:47:44.345Z,1.80
2019-03-10T16:50:15.279Z,1.23
2019-03-10T16:52:44.462Z,1.23
2019-03-10T16:55:13.769Z,1.13
2019-03-10T16:57:42.946Z,1.27
2019-03-10T17:00:12.690Z,1.10
2019-03-10T17:02:43.161Z,1.27
2019-03-10T17:05:15.542Z,1.30
2019-03-10T17:07:44.025Z,1.40
2019-03-10T17:10:13.999Z,1.30
2019-03-10T17:12:43.171Z,1.17
2019-03-10T17:15:14.096Z,1.10
2019-03-10T17:17:43.263Z,1.60
2019-03-10T17:20:13.444Z,1.67
2019-03-10T17:22:42.630Z,1.70
2019-03-10T17:25:12.087Z,1.30
2019-03-10T17:27:41.424Z,1.53
2019-03-10T17:30:13.917Z,1.20
2019-03-10T17:32:43.207Z,2.03
2019-03-10T17:35:12.564Z,1.50
2019-03-10T17:37:41.816Z,2.53
2019-03-10T17:40:13.782Z,1.30
2019-03-10T17:42:43.104Z,1.70
2019-03-10T17:45:14.294Z,1.40
2019-03-10T17:47:43.527Z,1.07
2019-03-10T17:50:12.779Z,1.17
2019-03-10T17:52:41.995Z,1.60
2019-03-10T17:55:11.280Z,1.13
2019-03-10T17:57:40.638Z,1.17
2019-03-10T18:00:11.449Z,0.90
2019-03-10T18:02:40.671Z,1.20
2019-03-10T18:05:10.099Z,0.80
2019-03-10T18:07:39.327Z,0.90
2019-03-10T18:10:09.771Z,1.00
2019-03-10T18:12:39.023Z,1.30
2019-03-10T18:15:09.693Z,1.10
2019-03-10T18:17:38.983Z,1.30
2019-03-10T18:20:10.855Z,1.10
2019-03-10T18:22:41.590Z,1.20
2019-03-10T18:25:11.699Z,1.20
2019-03-10T18:27:40.876Z,0.73
2019-03-10T18:30:13.059Z,1.40
2019-03-10T18:32:42.291Z,1.53
2019-03-10T18:35:11.637Z,1.43
2019-03-10T18:37:40.887Z,2.43
2019-03-10T18:40:13.339Z,3.40
2019-03-10T18:42:42.508Z,3.87
2019-03-10T18:45:13.369Z,3.60
2019-03-10T18:47:42.621Z,6.60
2019-03-10T18:50:12.528Z,14.70
2019-03-10T18:52:41.755Z,5.30
2019-03-10T18:55:11.579Z,2.00
2019-03-10T18:57:40.832Z,18.83
2019-03-10T19:00:13.907Z,5.77
2019-03-10T19:02:43.160Z,2.57
2019-03-10T19:05:12.468Z,5.13
2019-03-10T19:07:41.726Z,5.20
2019-03-10T19:10:11.152Z,5.27
2019-03-10T19:12:40.338Z,3.03
2019-03-10T19:15:11.308Z,3.27
2019-03-10T19:17:40.565Z,2.87
2019-03-10T19:20:10.497Z,2.40
2019-03-10T19:22:39.672Z,1.40
2019-03-10T19:25:09.523Z,3.60
2019-03-10T19:27:38.780Z,2.87
2019-03-10T19:30:09.564Z,2.00
2019-03-10T19:32:38.754Z,2.27
2019-03-10T19:35:08.023Z,2.23
2019-03-10T19:37:37.282Z,2.50
2019-03-10T19:40:07.759Z,2.50
2019-03-10T19:42:37.036Z,3.03
2019-03-10T19:45:06.770Z,2.73
2019-03-10T19:47:36.096Z,5.47
2019-03-10T19:50:05.767Z,3.00
2019-03-10T19:52:35.145Z,3.47
2019-03-10T19:55:05.296Z,3.23
2019-03-10T19:57:34.627Z,3.37
2019-03-10T20:00:04.008Z,6.37
2019-03-10T20:02:33.275Z,4.17
2019-03-10T20:05:02.523Z,6.97
2019-03-10T20:07:31.755Z,4.00
2019-03-10T20:10:01.023Z,3.10
2019-03-10T20:12:30.251Z,2.30
2019-03-10T20:14:59.613Z,3.27
2019-03-10T20:17:28.853Z,2.70
2019-03-10T20:19:58.049Z,5.93
2019-03-10T20:22:27.274Z,4.33
2019-03-10T20:24:56.518Z,5.30
2019-03-10T20:27:25.667Z,3.17
2019-03-10T20:29:54.928Z,3.90
2019-03-10T20:32:24.307Z,3.43
2019-03-10T20:34:53.643Z,3.93
2019-03-10T20:37:22.935Z,2.50
2019-03-10T20:39:52.196Z,4.07
2019-03-10T20:42:21.460Z,2.30
2019-03-10T20:44:50.669Z,1.80
2019-03-10T20:47:19.829Z,2.10
2019-03-10T20:49:49.592Z,2.20
2019-03-10T20:52:18.847Z,2.10
2019-03-10T20:54:48.107Z,2.20
2019-03-10T20:57:17.251Z,2.57
2019-03-10T20:59:46.520Z,2.10
2019-03-10T21:02:15.836Z,2.37
2019-03-10T21:04:45.099Z,2.60
2019-03-10T21:07:14.250Z,2.70
2019-03-10T21:09:43.583Z,4.87
2019-03-10T21:12:12.840Z,2.17
2019-03-10T21:14:42.071Z,2.20
2019-03-10T21:17:11.400Z,2.97
2019-03-10T21:19:40.753Z,3.07
2019-03-10T21:22:10.210Z,2.10
2019-03-10T21:24:39.526Z,2.27
2019-03-10T21:27:08.811Z,2.60
2019-03-10T21:29:38.044Z,2.90
2019-03-10T21:32:07.219Z,2.40
2019-03-10T21:34:36.367Z,2.97
2019-03-10T21:37:05.583Z,2.20
2019-03-10T21:39:35.140Z,2.47
2019-03-10T21:42:04.579Z,2.53
2019-03-10T21:44:33.767Z,2.90
2019-03-10T21:47:03.023Z,3.40
2019-03-10T21:49:32.248Z,4.50
2019-03-10T21:52:01.503Z,6.33
2019-03-10T21:54:30.765Z,5.90
2019-03-10T21:57:00.030Z,4.37
2019-03-10T21:59:29.258Z,9.47
2019-03-10T22:01:58.443Z,7.63
2019-03-10T22:04:27.754Z,5.47
2019-03-10T22:06:57.006Z,4.77
2019-03-10T22:09:26.182Z,4.90
2019-03-10T22:11:55.333Z,2.20
2019-03-10T22:14:24.751Z,2.37
2019-03-10T22:16:53.972Z,2.93
2019-03-10T22:19:24.352Z,2.40
2019-03-10T22:21:53.520Z,2.37
2019-03-10T22:24:22.763Z,3.93
2019-03-10T22:26:51.942Z,3.93
2019-03-10T22:29:21.196Z,3.67
2019-03-10T22:31:50.437Z,7.60
2019-03-10T22:34:19.767Z,6.43
2019-03-10T22:36:48.943Z,4.30
2019-03-10T22:39:18.200Z,3.50
2019-03-10T22:41:47.371Z,2.43
2019-03-10T22:44:16.610Z,2.13
2019-03-10T22:46:45.851Z,2.50
2019-03-10T22:49:15.116Z,2.40
2019-03-10T22:51:44.342Z,2.20
2019-03-10T22:54:13.523Z,1.90
2019-03-10T22:56:42.764Z,1.77
2019-03-10T22:59:11.957Z,2.00
2019-03-10T23:01:41.186Z,2.33
2019-03-10T23:04:10.444Z,2.13
2019-03-10T23:06:39.621Z,1.97
2019-03-10T23:09:09.150Z,2.27
2019-03-10T23:11:38.375Z,1.90
2019-03-10T23:14:07.663Z,2.33
2019-03-10T23:16:36.844Z,2.60
2019-03-10T23:19:06.185Z,2.30
2019-03-10T23:21:35.418Z,2.37
2019-03-10T23:24:04.664Z,2.47
2019-03-10T23:26:33.992Z,2.33
2019-03-10T23:29:03.221Z,2.60
2019-03-10T23:31:32.478Z,2.67
2019-03-10T23:34:01.858Z,2.40
2019-03-10T23:36:31.255Z,2.20
2019-03-10T23:39:00.498Z,2.87
2019-03-10T23:41:29.683Z,2.40
2019-03-10T23:43:58.973Z,2.60
2019-03-10T23:46:28.301Z,2.50
2019-03-10T23:48:57.539Z,3.30
2019-03-10T23:51:26.814Z,2.93
2019-03-10T23:53:56.131Z,2.83
2019-03-10T23:56:25.383Z,3.20
2019-03-10T23:58:54.656Z,4.20
